sensor_id;sensor_type;location;lat;lon;timestamp;pressure;altitude;pressure_sealevel;temperature;humidity
52983;BME280;48698;45.736;13.926;2022-12-18T00:04:23;98539.81;;;2.30;100.00
52983;BME280;48698;45.736;13.926;2022-12-18T00:09:37;98582.59;;;2.40;100.00
52983;BME280;48698;45.736;13.926;2022-12-18T00:14:42;98471.94;;;1.68;100.00
52983;BME280;48698;45.736;13.926;2022-12-18T00:19:55;98362.16;;;1.03;100.00
52983;BME280;48698;45.736;13.926;2022-12-18T00:24:59;98594.91;;;2.18;100.00
52983;BME280;48698;45.736;13.926;2022-12-18T00:30:02;98574.03;;;1.85;100.00
52983;BME280;48698;45.736;13.926;2022-12-18T00:35:06;98530.44;;;1.50;100.00
52983;BME280;48698;45.736;13.926;2022-12-18T00:40:20;98526.97;;;1.48;100.00
52983;BME280;48698;45.736;13.926;2022-12-18T00:45:30;98646.47;;;2.04;100.00
52983;BME280;48698;45.736;13.926;2022-12-18T00:50:34;98614.19;;;1.78;100.00
52983;BME280;48698;45.736;13.926;2022-12-18T00:55:39;98475.50;;;1.03;100.00
52983;BME280;48698;45.736;13.926;2022-12-18T01:00:43;98599.38;;;1.75;100.00
52983;BME280;48698;45.736;13.926;2022-12-18T01:05:47;98564.47;;;1.55;100.00
52983;BME280;48698;45.736;13.926;2022-12-18T01:10:50;98582.78;;;1.47;100.00
52983;BME280;48698;45.736;13.926;2022-12-18T01:15:54;98518.25;;;1.10;100.00
52983;BME280;48698;45.736;13.926;2022-12-18T01:20:59;98639.53;;;1.79;100.00
52983;BME280;48698;45.736;13.926;2022-12-18T01:26:11;98599.38;;;1.42;100.00
52983;BME280;48698;45.736;13.926;2022-12-18T01:31:19;98649.09;;;1.77;100.00
52983;BME280;48698;45.736;13.926;2022-12-18T01:36:26;98640.41;;;1.58;100.00
52983;BME280;48698;45.736;13.926;2022-12-18T01:41:31;98481.59;;;0.68;100.00
52983;BME280;48698;45.736;13.926;2022-12-18T01:46:55;98657.84;;;1.73;100.00
52983;BME280;48698;45.736;13.926;2022-12-18T01:51:59;98615.06;;;1.37;100.00
52983;BME280;48698;45.736;13.926;2022-12-18T01:57:02;98519.09;;;0.83;100.00
52983;BME280;48698;45.736;13.926;2022-12-18T02:02:07;98519.09;;;0.73;100.00
52983;BME280;48698;45.736;13.926;2022-12-18T02:07:25;98695.38;;;1.70;100.00
52983;BME280;48698;45.736;13.926;2022-12-18T02:13:08;98690.13;;;1.56;100.00
52983;BME280;48698;45.736;13.926;2022-12-18T02:18:23;98696.25;;;1.65;100.00
52983;BME280;48698;45.736;13.926;2022-12-18T02:23:42;98725.06;;;1.71;100.00
52983;BME280;48698;45.736;13.926;2022-12-18T02:28:54;98715.44;;;1.67;100.00
52983;BME280;48698;45.736;13.926;2022-12-18T02:34:02;98715.47;;;1.59;100.00
52983;BME280;48698;45.736;13.926;2022-12-18T02:39:17;98576.66;;;0.92;100.00
52983;BME280;48698;45.736;13.926;2022-12-18T02:44:24;98719.78;;;1.46;100.00
52983;BME280;48698;45.736;13.926;2022-12-18T02:49:49;98750.34;;;1.50;100.00
52983;BME280;48698;45.736;13.926;2022-12-18T03:06:14;98727.56;;;1.24;100.00
52983;BME280;48698;45.736;13.926;2022-12-18T03:11:27;98687.34;;;0.90;100.00
52983;BME280;48698;45.736;13.926;2022-12-18T03:16:54;98744.97;;;1.05;100.00
52983;BME280;48698;45.736;13.926;2022-12-18T03:22:03;98686.44;;;0.80;100.00
52983;BME280;48698;45.736;13.926;2022-12-18T03:27:13;98641.94;;;0.67;100.00
52983;BME280;48698;45.736;13.926;2022-12-18T03:32:24;98769.53;;;1.49;100.00
52983;BME280;48698;45.736;13.926;2022-12-18T03:37:30;98690.00;;;0.94;100.00
52983;BME280;48698;45.736;13.926;2022-12-18T03:42:52;98695.25;;;1.02;100.00
52983;BME280;48698;45.736;13.926;2022-12-18T03:48:28;98793.09;;;1.45;100.00
52983;BME280;48698;45.736;13.926;2022-12-18T03:53:52;98802.69;;;1.44;100.00
52983;BME280;48698;45.736;13.926;2022-12-18T03:58:58;98758.94;;;1.16;100.00
52983;BME280;48698;45.736;13.926;2022-12-18T04:04:04;98813.94;;;1.24;100.00
52983;BME280;48698;45.736;13.926;2022-12-18T04:09:09;98819.16;;;1.24;100.00
52983;BME280;48698;45.736;13.926;2022-12-18T04:14:13;98821.78;;;1.19;100.00
52983;BME280;48698;45.736;13.926;2022-12-18T04:19:19;98809.53;;;1.12;100.00
52983;BME280;48698;45.736;13.926;2022-12-18T04:24:23;98824.41;;;1.27;100.00
52983;BME280;48698;45.736;13.926;2022-12-18T04:29:27;98730.81;;;0.64;100.00
52983;BME280;48698;45.736;13.926;2022-12-18T04:34:30;98732.59;;;0.71;100.00
52983;BME280;48698;45.736;13.926;2022-12-18T04:39:34;98829.66;;;1.28;100.00
52983;BME280;48698;45.736;13.926;2022-12-18T04:44:39;98786.75;;;0.90;100.00
52983;BME280;48698;45.736;13.926;2022-12-18T04:49:43;98856.69;;;1.24;100.00
52983;BME280;48698;45.736;13.926;2022-12-18T04:54:46;98782.47;;;1.04;100.00
52983;BME280;48698;45.736;13.926;2022-12-18T04:59:50;98867.16;;;1.24;100.00
52983;BME280;48698;45.736;13.926;2022-12-18T05:04:53;98802.44;;;0.90;100.00
52983;BME280;48698;45.736;13.926;2022-12-18T05:09:57;98771.84;;;0.72;100.00
52983;BME280;48698;45.736;13.926;2022-12-18T05:15:04;98873.25;;;1.23;100.00
52983;BME280;48698;45.736;13.926;2022-12-18T05:20:08;98789.25;;;0.73;100.00
52983;BME280;48698;45.736;13.926;2022-12-18T05:25:11;98847.78;;;0.90;100.00
52983;BME280;48698;45.736;13.926;2022-12-18T05:30:15;98891.56;;;1.22;100.00
52983;BME280;48698;45.736;13.926;2022-12-18T05:35:21;98803.97;;;0.55;100.00
52983;BME280;48698;45.736;13.926;2022-12-18T05:40:25;98901.06;;;1.04;100.00
52983;BME280;48698;45.736;13.926;2022-12-18T05:45:29;98687.44;;;-0.41;100.00
52983;BME280;48698;45.736;13.926;2022-12-18T05:50:35;98929.00;;;1.09;100.00
52983;BME280;48698;45.736;13.926;2022-12-18T05:55:40;98922.84;;;1.07;100.00
52983;BME280;48698;45.736;13.926;2022-12-18T06:00:45;98932.34;;;0.89;100.00
52983;BME280;48698;45.736;13.926;2022-12-18T06:05:49;98868.41;;;0.51;100.00
52983;BME280;48698;45.736;13.926;2022-12-18T06:10:53;98903.22;;;0.47;100.00
52983;BME280;48698;45.736;13.926;2022-12-18T06:15:56;98827.13;;;0.11;100.00
52983;BME280;48698;45.736;13.926;2022-12-18T06:21:10;98749.22;;;-0.40;100.00
52983;BME280;48698;45.736;13.926;2022-12-18T06:26:14;98950.53;;;0.73;100.00
52983;BME280;48698;45.736;13.926;2022-12-18T06:31:18;98912.78;;;0.43;100.00
52983;BME280;48698;45.736;13.926;2022-12-18T06:36:22;98966.25;;;0.80;100.00
52983;BME280;48698;45.736;13.926;2022-12-18T06:41:25;98986.28;;;0.77;100.00
52983;BME280;48698;45.736;13.926;2022-12-18T06:46:29;98999.38;;;0.80;100.00
52983;BME280;48698;45.736;13.926;2022-12-18T06:51:33;98980.16;;;0.75;100.00
52983;BME280;48698;45.736;13.926;2022-12-18T06:56:36;98970.41;;;0.57;100.00
52983;BME280;48698;45.736;13.926;2022-12-18T07:01:40;98981.06;;;0.75;100.00
52983;BME280;48698;45.736;13.926;2022-12-18T07:06:43;98896.13;;;0.29;100.00
52983;BME280;48698;45.736;13.926;2022-12-18T07:11:47;98785.75;;;-0.40;100.00
52983;BME280;48698;45.736;13.926;2022-12-18T07:16:50;98946.91;;;0.59;100.00
52983;BME280;48698;45.736;13.926;2022-12-18T07:21:55;99005.47;;;0.80;100.00
52983;BME280;48698;45.736;13.926;2022-12-18T07:26:58;98989.59;;;0.58;100.00
52983;BME280;48698;45.736;13.926;2022-12-18T07:32:01;98965.25;;;0.65;100.00
52983;BME280;48698;45.736;13.926;2022-12-18T07:37:05;99022.09;;;0.84;100.00
52983;BME280;48698;45.736;13.926;2022-12-18T07:42:08;99018.63;;;0.86;100.00
52983;BME280;48698;45.736;13.926;2022-12-18T07:47:34;99003.66;;;0.70;100.00
52983;BME280;48698;45.736;13.926;2022-12-18T07:52:47;98968.59;;;0.50;100.00
52983;BME280;48698;45.736;13.926;2022-12-18T07:57:51;98947.69;;;0.48;100.00
52983;BME280;48698;45.736;13.926;2022-12-18T08:03:02;98980.16;;;0.72;100.00
52983;BME280;48698;45.736;13.926;2022-12-18T08:08:05;99070.38;;;1.21;100.00
52983;BME280;48698;45.736;13.926;2022-12-18T08:13:09;99067.78;;;1.22;100.00
52983;BME280;48698;45.736;13.926;2022-12-18T08:18:12;99091.34;;;1.27;100.00
52983;BME280;48698;45.736;13.926;2022-12-18T08:23:16;98967.03;;;0.67;100.00
52983;BME280;48698;45.736;13.926;2022-12-18T08:28:19;99045.09;;;1.21;100.00
52983;BME280;48698;45.736;13.926;2022-12-18T08:33:23;99056.47;;;1.26;100.00
52983;BME280;48698;45.736;13.926;2022-12-18T08:38:26;99077.53;;;1.41;100.00
52983;BME280;48698;45.736;13.926;2022-12-18T08:43:30;99102.06;;;1.54;100.00
52983;BME280;48698;45.736;13.926;2022-12-18T08:49:02;99108.13;;;1.48;100.00
52983;BME280;48698;45.736;13.926;2022-12-18T08:54:06;99118.69;;;1.58;100.00
52983;BME280;48698;45.736;13.926;2022-12-18T08:59:10;98948.50;;;0.44;100.00
52983;BME280;48698;45.736;13.926;2022-12-18T09:04:22;99068.72;;;1.30;100.00
52983;BME280;48698;45.736;13.926;2022-12-18T09:09:26;99095.06;;;1.48;100.00
52983;BME280;48698;45.736;13.926;2022-12-18T09:14:30;99078.44;;;1.46;100.00
52983;BME280;48698;45.736;13.926;2022-12-18T09:19:33;99106.44;;;1.55;100.00
52983;BME280;48698;45.736;13.926;2022-12-18T09:24:54;99099.50;;;1.59;100.00
52983;BME280;48698;45.736;13.926;2022-12-18T09:29:58;99056.56;;;1.38;100.00
52983;BME280;48698;45.736;13.926;2022-12-18T09:35:01;99152.09;;;1.90;100.00
52983;BME280;48698;45.736;13.926;2022-12-18T09:40:05;99096.91;;;1.62;100.00
52983;BME280;48698;45.736;13.926;2022-12-18T09:45:13;99039.91;;;1.27;100.00
52983;BME280;48698;45.736;13.926;2022-12-18T09:50:32;99154.78;;;2.02;100.00
52983;BME280;48698;45.736;13.926;2022-12-18T09:55:40;99083.03;;;1.78;100.00
52983;BME280;48698;45.736;13.926;2022-12-18T10:00:45;99147.94;;;2.23;100.00
52983;BME280;48698;45.736;13.926;2022-12-18T10:06:20;99131.38;;;2.25;100.00
52983;BME280;48698;45.736;13.926;2022-12-18T10:27:16;99126.22;;;2.52;100.00
52983;BME280;48698;45.736;13.926;2022-12-18T10:32:22;99123.56;;;2.43;100.00
52983;BME280;48698;45.736;13.926;2022-12-18T10:37:28;99101.75;;;2.44;100.00
52983;BME280;48698;45.736;13.926;2022-12-18T10:42:32;98932.72;;;1.45;100.00
52983;BME280;48698;45.736;13.926;2022-12-18T10:47:36;99098.31;;;2.60;100.00
52983;BME280;48698;45.736;13.926;2022-12-18T10:52:54;99055.41;;;2.46;100.00
52983;BME280;48698;45.736;13.926;2022-12-18T11:03:36;99103.63;;;2.88;100.00
52983;BME280;48698;45.736;13.926;2022-12-18T11:08:57;99102.72;;;2.80;100.00
52983;BME280;48698;45.736;13.926;2022-12-18T11:14:06;99093.13;;;2.98;100.00
52983;BME280;48698;45.736;13.926;2022-12-18T11:19:34;99101.00;;;2.86;100.00
52983;BME280;48698;45.736;13.926;2022-12-18T11:30:28;99079.16;;;3.13;100.00
52983;BME280;48698;45.736;13.926;2022-12-18T11:40:42;99087.94;;;3.33;100.00
52983;BME280;48698;45.736;13.926;2022-12-18T11:45:52;98995.97;;;2.56;100.00
52983;BME280;48698;45.736;13.926;2022-12-18T11:51:02;99056.34;;;2.73;100.00
52983;BME280;48698;45.736;13.926;2022-12-18T12:12:31;99043.25;;;2.86;100.00
52983;BME280;48698;45.736;13.926;2022-12-18T12:18:24;99081.78;;;3.02;100.00
52983;BME280;48698;45.736;13.926;2022-12-18T12:29:01;99078.28;;;3.19;100.00
52983;BME280;48698;45.736;13.926;2022-12-18T12:34:23;99007.41;;;2.75;100.00
52983;BME280;48698;45.736;13.926;2022-12-18T12:39:36;98981.09;;;2.46;100.00
52983;BME280;48698;45.736;13.926;2022-12-18T12:44:51;99039.69;;;2.51;100.00
52983;BME280;48698;45.736;13.926;2022-12-18T12:50:04;99061.59;;;2.65;100.00
52983;BME280;48698;45.736;13.926;2022-12-18T12:55:33;99048.44;;;2.56;100.00
52983;BME280;48698;45.736;13.926;2022-12-18T13:00:49;99030.03;;;2.39;100.00
52983;BME280;48698;45.736;13.926;2022-12-18T13:06:07;99073.78;;;2.52;100.00
52983;BME280;48698;45.736;13.926;2022-12-18T13:11:32;98987.84;;;1.76;100.00
52983;BME280;48698;45.736;13.926;2022-12-18T13:22:30;99014.88;;;1.73;100.00
52983;BME280;48698;45.736;13.926;2022-12-18T13:43:45;99127.81;;;2.17;100.00
52983;BME280;48698;45.736;13.926;2022-12-18T13:49:00;99121.69;;;2.12;100.00
52983;BME280;48698;45.736;13.926;2022-12-18T13:59:26;99110.06;;;1.74;100.00
52983;BME280;48698;45.736;13.926;2022-12-18T14:04:34;99122.25;;;1.69;100.00
52983;BME280;48698;45.736;13.926;2022-12-18T14:09:43;99097.59;;;1.41;100.00
52983;BME280;48698;45.736;13.926;2022-12-18T14:14:50;99123.84;;;1.50;100.00
52983;BME280;48698;45.736;13.926;2022-12-18T14:19:57;99041.41;;;0.98;100.00
52983;BME280;48698;45.736;13.926;2022-12-18T14:25:16;99097.50;;;1.29;100.00
52983;BME280;48698;45.736;13.926;2022-12-18T14:35:27;99098.13;;;1.03;100.00
52983;BME280;48698;45.736;13.926;2022-12-18T14:40:31;98932.34;;;-0.04;100.00
52983;BME280;48698;45.736;13.926;2022-12-18T14:45:45;99053.16;;;0.53;100.00
52983;BME280;48698;45.736;13.926;2022-12-18T14:51:23;99102.97;;;0.66;100.00
52983;BME280;48698;45.736;13.926;2022-12-18T14:56:31;99097.84;;;0.76;100.00
52983;BME280;48698;45.736;13.926;2022-12-18T15:01:37;99037.19;;;0.26;100.00
52983;BME280;48698;45.736;13.926;2022-12-18T15:06:42;99114.22;;;0.59;100.00
52983;BME280;48698;45.736;13.926;2022-12-18T15:11:47;99121.09;;;0.50;100.00
52983;BME280;48698;45.736;13.926;2022-12-18T15:16:53;99119.38;;;0.52;100.00
52983;BME280;48698;45.736;13.926;2022-12-18T15:21:57;99110.34;;;0.26;100.00
52983;BME280;48698;45.736;13.926;2022-12-18T15:27:20;99128.72;;;0.32;100.00
52983;BME280;48698;45.736;13.926;2022-12-18T15:32:26;99139.13;;;0.31;100.00
52983;BME280;48698;45.736;13.926;2022-12-18T15:37:30;99062.63;;;-0.27;100.00
52983;BME280;48698;45.736;13.926;2022-12-18T15:42:34;99011.63;;;-0.64;100.00
52983;BME280;48698;45.736;13.926;2022-12-18T15:47:57;99039.00;;;-0.33;100.00
52983;BME280;48698;45.736;13.926;2022-12-18T15:53:00;99096.72;;;-0.13;100.00
52983;BME280;48698;45.736;13.926;2022-12-18T15:58:08;99143.38;;;0.21;100.00
52983;BME280;48698;45.736;13.926;2022-12-18T16:03:12;99178.97;;;0.13;100.00
52983;BME280;48698;45.736;13.926;2022-12-18T16:08:15;98925.53;;;-1.22;100.00
52983;BME280;48698;45.736;13.926;2022-12-18T16:13:20;99196.38;;;0.14;100.00
52983;BME280;48698;45.736;13.926;2022-12-18T16:18:23;99084.81;;;-0.55;100.00
52983;BME280;48698;45.736;13.926;2022-12-18T16:23:37;99137.53;;;-0.20;100.00
52983;BME280;48698;45.736;13.926;2022-12-18T16:28:41;99184.91;;;0.03;100.00
52983;BME280;48698;45.736;13.926;2022-12-18T16:33:49;99149.78;;;-0.16;100.00
52983;BME280;48698;45.736;13.926;2022-12-18T16:39:12;99020.78;;;-0.90;100.00
52983;BME280;48698;45.736;13.926;2022-12-18T16:44:16;99154.13;;;-0.18;100.00
52983;BME280;48698;45.736;13.926;2022-12-18T16:49:20;98981.38;;;-1.08;100.00
52983;BME280;48698;45.736;13.926;2022-12-18T16:54:24;98998.88;;;-1.01;100.00
52983;BME280;48698;45.736;13.926;2022-12-18T16:59:28;99161.34;;;-0.02;100.00
52983;BME280;48698;45.736;13.926;2022-12-18T17:04:32;99132.09;;;-0.35;100.00
52983;BME280;48698;45.736;13.926;2022-12-18T17:09:37;99180.47;;;-0.03;100.00
52983;BME280;48698;45.736;13.926;2022-12-18T17:14:40;98945.03;;;-1.51;100.00
52983;BME280;48698;45.736;13.926;2022-12-18T17:19:44;99060.88;;;-0.83;100.00
52983;BME280;48698;45.736;13.926;2022-12-18T17:24:48;99045.06;;;-0.92;100.00
52983;BME280;48698;45.736;13.926;2022-12-18T17:29:53;99186.47;;;-0.08;100.00
52983;BME280;48698;45.736;13.926;2022-12-18T17:34:56;99018.75;;;-1.08;100.00
52983;BME280;48698;45.736;13.926;2022-12-18T17:40:17;99168.88;;;-0.20;100.00
52983;BME280;48698;45.736;13.926;2022-12-18T17:45:20;99071.56;;;-0.68;100.00
52983;BME280;48698;45.736;13.926;2022-12-18T17:50:24;99173.91;;;-0.33;100.00
52983;BME280;48698;45.736;13.926;2022-12-18T17:55:28;99027.38;;;-1.12;100.00
52983;BME280;48698;45.736;13.926;2022-12-18T18:00:32;99159.81;;;-0.43;100.00
52983;BME280;48698;45.736;13.926;2022-12-18T18:05:36;99022.34;;;-1.01;100.00
52983;BME280;48698;45.736;13.926;2022-12-18T18:10:39;99181.88;;;-0.23;100.00
52983;BME280;48698;45.736;13.926;2022-12-18T18:15:43;99199.31;;;-0.23;100.00
52983;BME280;48698;45.736;13.926;2022-12-18T18:20:47;98975.25;;;-1.63;100.00
52983;BME280;48698;45.736;13.926;2022-12-18T18:25:50;98912.94;;;-1.98;100.00
52983;BME280;48698;45.736;13.926;2022-12-18T18:30:54;99004.31;;;-1.38;100.00
52983;BME280;48698;45.736;13.926;2022-12-18T18:35:58;99130.03;;;-0.56;100.00
52983;BME280;48698;45.736;13.926;2022-12-18T18:41:03;99212.16;;;-0.35;100.00
52983;BME280;48698;45.736;13.926;2022-12-18T18:46:10;99167.16;;;-0.73;100.00
52983;BME280;48698;45.736;13.926;2022-12-18T18:51:25;99072.47;;;-1.17;100.00
52983;BME280;48698;45.736;13.926;2022-12-18T18:56:36;99257.50;;;-0.29;100.00
52983;BME280;48698;45.736;13.926;2022-12-18T19:02:00;99018.34;;;-1.78;100.00
52983;BME280;48698;45.736;13.926;2022-12-18T19:07:06;99252.38;;;-0.24;100.00
52983;BME280;48698;45.736;13.926;2022-12-18T19:12:10;99287.13;;;-0.28;100.00
52983;BME280;48698;45.736;13.926;2022-12-18T19:17:32;99277.56;;;-0.26;100.00
52983;BME280;48698;45.736;13.926;2022-12-18T19:22:36;99288.00;;;-0.28;100.00
52983;BME280;48698;45.736;13.926;2022-12-18T19:27:40;99250.94;;;-0.57;100.00
52983;BME280;48698;45.736;13.926;2022-12-18T19:32:44;99052.50;;;-1.63;100.00
52983;BME280;48698;45.736;13.926;2022-12-18T19:37:47;99124.34;;;-1.31;100.00
52983;BME280;48698;45.736;13.926;2022-12-18T19:42:52;99179.63;;;-1.03;100.00
52983;BME280;48698;45.736;13.926;2022-12-18T19:47:55;99268.63;;;-0.40;100.00
52983;BME280;48698;45.736;13.926;2022-12-18T19:53:05;98988.09;;;-2.15;100.00
52983;BME280;48698;45.736;13.926;2022-12-18T19:58:11;99262.44;;;-0.45;100.00
52983;BME280;48698;45.736;13.926;2022-12-18T20:03:14;99211.28;;;-0.84;100.00
52983;BME280;48698;45.736;13.926;2022-12-18T20:08:35;99228.56;;;-0.89;100.00
52983;BME280;48698;45.736;13.926;2022-12-18T20:13:39;99186.78;;;-0.92;100.00
52983;BME280;48698;45.736;13.926;2022-12-18T20:18:49;99140.03;;;-1.29;100.00
52983;BME280;48698;45.736;13.926;2022-12-18T20:23:54;99120.97;;;-1.25;100.00
52983;BME280;48698;45.736;13.926;2022-12-18T20:28:58;99247.41;;;-0.60;100.00
52983;BME280;48698;45.736;13.926;2022-12-18T20:34:02;99270.16;;;-0.52;100.00
52983;BME280;48698;45.736;13.926;2022-12-18T20:39:09;99207.69;;;-0.90;100.00
52983;BME280;48698;45.736;13.926;2022-12-18T20:44:16;99149.84;;;-1.16;100.00
52983;BME280;48698;45.736;13.926;2022-12-18T20:49:26;99182.91;;;-1.14;100.00
52983;BME280;48698;45.736;13.926;2022-12-18T20:54:30;99013.34;;;-2.11;100.00
52983;BME280;48698;45.736;13.926;2022-12-18T20:59:33;99261.47;;;-0.50;100.00
52983;BME280;48698;45.736;13.926;2022-12-18T21:04:37;99199.81;;;-0.93;100.00
52983;BME280;48698;45.736;13.926;2022-12-18T21:09:40;99146.50;;;-1.08;100.00
52983;BME280;48698;45.736;13.926;2022-12-18T21:14:44;99177.09;;;-0.99;100.00
52983;BME280;48698;45.736;13.926;2022-12-18T21:19:49;99130.50;;;-1.27;100.00
52983;BME280;48698;45.736;13.926;2022-12-18T21:24:53;99156.13;;;-1.05;100.00
52983;BME280;48698;45.736;13.926;2022-12-18T21:29:56;99205.25;;;-0.81;100.00
52983;BME280;48698;45.736;13.926;2022-12-18T21:35:00;99132.38;;;-1.20;100.00
52983;BME280;48698;45.736;13.926;2022-12-18T21:40:13;99170.00;;;-1.06;100.00
52983;BME280;48698;45.736;13.926;2022-12-18T21:45:17;99248.25;;;-0.60;100.00
52983;BME280;48698;45.736;13.926;2022-12-18T21:50:21;99153.41;;;-1.11;100.00
52983;BME280;48698;45.736;13.926;2022-12-18T21:55:24;99178.69;;;-1.06;100.00
52983;BME280;48698;45.736;13.926;2022-12-18T22:00:28;99246.34;;;-0.68;100.00
52983;BME280;48698;45.736;13.926;2022-12-18T22:05:40;99129.47;;;-1.35;100.00
52983;BME280;48698;45.736;13.926;2022-12-18T22:10:43;98995.78;;;-2.21;100.00
52983;BME280;48698;45.736;13.926;2022-12-18T22:15:57;99178.53;;;-1.15;100.00
52983;BME280;48698;45.736;13.926;2022-12-18T22:21:01;99253.56;;;-0.57;100.00
52983;BME280;48698;45.736;13.926;2022-12-18T22:26:05;99190.94;;;-1.01;100.00
52983;BME280;48698;45.736;13.926;2022-12-18T22:31:09;99181.97;;;-1.17;100.00
52983;BME280;48698;45.736;13.926;2022-12-18T22:36:13;99225.34;;;-0.76;100.00
52983;BME280;48698;45.736;13.926;2022-12-18T22:41:18;99237.66;;;-0.69;100.00
52983;BME280;48698;45.736;13.926;2022-12-18T22:46:23;99210.34;;;-0.87;100.00
52983;BME280;48698;45.736;13.926;2022-12-18T22:51:28;99181.41;;;-1.01;100.00
52983;BME280;48698;45.736;13.926;2022-12-18T22:56:31;99180.72;;;-0.91;100.00
52983;BME280;48698;45.736;13.926;2022-12-18T23:01:35;99195.31;;;-1.00;100.00
52983;BME280;48698;45.736;13.926;2022-12-18T23:06:42;99256.22;;;-0.54;100.00
52983;BME280;48698;45.736;13.926;2022-12-18T23:11:46;99131.59;;;-1.15;100.00
52983;BME280;48698;45.736;13.926;2022-12-18T23:16:50;99223.03;;;-0.59;100.00
52983;BME280;48698;45.736;13.926;2022-12-18T23:21:54;99237.53;;;-0.75;100.00
52983;BME280;48698;45.736;13.926;2022-12-18T23:26:59;99197.41;;;-0.81;100.00
52983;BME280;48698;45.736;13.926;2022-12-18T23:32:06;99257.06;;;-0.55;100.00
52983;BME280;48698;45.736;13.926;2022-12-18T23:37:19;99206.19;;;-0.78;100.00
52983;BME280;48698;45.736;13.926;2022-12-18T23:42:43;99091.66;;;-1.59;100.00
52983;BME280;48698;45.736;13.926;2022-12-18T23:47:46;99202.69;;;-0.80;100.00
52983;BME280;48698;45.736;13.926;2022-12-18T23:52:52;99185.84;;;-0.95;100.00
52983;BME280;48698;45.736;13.926;2022-12-18T23:57:56;99139.22;;;-1.25;100.00
